sensor_id;sensor_type;location;lat;lon;timestamp;pressure;altitude;pressure_sealevel;temperature;humidity
10712;BME280;5407;51.234;6.804;2024-01-15T00:01:02;99808.59;;;3.02;100.00
10712;BME280;5407;51.234;6.804;2024-01-15T00:03:29;99804.94;;;2.98;100.00
10712;BME280;5407;51.234;6.804;2024-01-15T00:05:55;99808.38;;;2.90;100.00
10712;BME280;5407;51.234;6.804;2024-01-15T00:08:22;99801.03;;;2.87;100.00
10712;BME280;5407;51.234;6.804;2024-01-15T00:10:49;99805.09;;;2.77;100.00
10712;BME280;5407;51.234;6.804;2024-01-15T00:13:16;99795.69;;;2.87;100.00
10712;BME280;5407;51.234;6.804;2024-01-15T00:15:43;99788.66;;;2.83;100.00
10712;BME280;5407;51.234;6.804;2024-01-15T00:18:11;99787.88;;;2.83;100.00
10712;BME280;5407;51.234;6.804;2024-01-15T00:20:38;99785.84;;;2.88;100.00
10712;BME280;5407;51.234;6.804;2024-01-15T00:23:04;99780.66;;;2.91;100.00
10712;BME280;5407;51.234;6.804;2024-01-15T00:25:31;99768.75;;;2.81;100.00
10712;BME280;5407;51.234;6.804;2024-01-15T00:27:58;99776.75;;;2.81;100.00
10712;BME280;5407;51.234;6.804;2024-01-15T00:30:25;99771.25;;;2.77;100.00
10712;BME280;5407;51.234;6.804;2024-01-15T00:32:52;99774.38;;;2.87;100.00
10712;BME280;5407;51.234;6.804;2024-01-15T00:35:20;99772.06;;;3.03;100.00
10712;BME280;5407;51.234;6.804;2024-01-15T00:37:47;99769.72;;;2.93;100.00
10712;BME280;5407;51.234;6.804;2024-01-15T00:40:13;99768.47;;;3.07;100.00
10712;BME280;5407;51.234;6.804;2024-01-15T00:42:40;99752.63;;;2.94;100.00
10712;BME280;5407;51.234;6.804;2024-01-15T00:45:08;99759.97;;;2.88;100.00
10712;BME280;5407;51.234;6.804;2024-01-15T00:47:35;99737.88;;;2.80;100.00
10712;BME280;5407;51.234;6.804;2024-01-15T00:50:01;99739.44;;;2.97;100.00
10712;BME280;5407;51.234;6.804;2024-01-15T00:52:30;99745.88;;;2.96;100.00
10712;BME280;5407;51.234;6.804;2024-01-15T00:54:56;99749.97;;;3.02;100.00
10712;BME280;5407;51.234;6.804;2024-01-15T00:57:23;99751.84;;;3.10;100.00
10712;BME280;5407;51.234;6.804;2024-01-15T00:59:50;99740.41;;;2.84;100.00
10712;BME280;5407;51.234;6.804;2024-01-15T01:02:17;99740.88;;;3.03;100.00
10712;BME280;5407;51.234;6.804;2024-01-15T01:04:44;99744.31;;;3.04;100.00
10712;BME280;5407;51.234;6.804;2024-01-15T01:07:11;99741.34;;;3.05;100.00
10712;BME280;5407;51.234;6.804;2024-01-15T01:09:39;99740.06;;;2.94;100.00
10712;BME280;5407;51.234;6.804;2024-01-15T01:12:06;99743.38;;;2.91;100.00
10712;BME280;5407;51.234;6.804;2024-01-15T01:14:33;99740.25;;;2.89;100.00
10712;BME280;5407;51.234;6.804;2024-01-15T01:17:00;99739.91;;;2.99;100.00
10712;BME280;5407;51.234;6.804;2024-01-15T01:19:27;99744.47;;;2.90;100.00
10712;BME280;5407;51.234;6.804;2024-01-15T01:21:53;99735.56;;;3.03;100.00
10712;BME280;5407;51.234;6.804;2024-01-15T01:24:20;99734.28;;;3.01;100.00
10712;BME280;5407;51.234;6.804;2024-01-15T01:26:48;99741.34;;;2.88;100.00
10712;BME280;5407;51.234;6.804;2024-01-15T01:29:15;99733.38;;;3.05;100.00
10712;BME280;5407;51.234;6.804;2024-01-15T01:31:43;99722.38;;;3.15;100.00
10712;BME280;5407;51.234;6.804;2024-01-15T01:34:10;99734.59;;;2.99;100.00
10712;BME280;5407;51.234;6.804;2024-01-15T01:36:37;99722.22;;;3.12;100.00
10712;BME280;5407;51.234;6.804;2024-01-15T01:39:04;99726.13;;;3.14;100.00
10712;BME280;5407;51.234;6.804;2024-01-15T01:41:32;99730.06;;;3.00;100.00
10712;BME280;5407;51.234;6.804;2024-01-15T01:44:00;99725.66;;;3.04;100.00
10712;BME280;5407;51.234;6.804;2024-01-15T01:46:27;99724.28;;;3.06;100.00
10712;BME280;5407;51.234;6.804;2024-01-15T01:48:55;99727.06;;;3.18;100.00
10712;BME280;5407;51.234;6.804;2024-01-15T01:51:24;99727.72;;;3.15;100.00
10712;BME280;5407;51.234;6.804;2024-01-15T01:53:51;99730.84;;;3.17;100.00
10712;BME280;5407;51.234;6.804;2024-01-15T01:56:18;99730.50;;;3.19;100.00
10712;BME280;5407;51.234;6.804;2024-01-15T01:58:47;99740.22;;;3.23;100.00
10712;BME280;5407;51.234;6.804;2024-01-15T02:01:15;99736.63;;;3.19;100.00
10712;BME280;5407;51.234;6.804;2024-01-15T02:03:43;99736.63;;;3.28;100.00
10712;BME280;5407;51.234;6.804;2024-01-15T02:06:10;99737.56;;;3.32;100.00
10712;BME280;5407;51.234;6.804;2024-01-15T02:08:37;99744.63;;;3.19;100.00
10712;BME280;5407;51.234;6.804;2024-01-15T02:11:04;99743.53;;;3.29;100.00
10712;BME280;5407;51.234;6.804;2024-01-15T02:13:31;99752.00;;;3.22;100.00
10712;BME280;5407;51.234;6.804;2024-01-15T02:15:58;99754.94;;;3.46;100.00
10712;BME280;5407;51.234;6.804;2024-01-15T02:18:26;99752.63;;;3.19;100.00
10712;BME280;5407;51.234;6.804;2024-01-15T02:20:53;99751.34;;;3.17;100.00
10712;BME280;5407;51.234;6.804;2024-01-15T02:23:21;99747.59;;;3.26;100.00
10712;BME280;5407;51.234;6.804;2024-01-15T02:25:48;99740.72;;;3.08;100.00
10712;BME280;5407;51.234;6.804;2024-01-15T02:28:16;99737.28;;;3.25;100.00
10712;BME280;5407;51.234;6.804;2024-01-15T02:30:44;99743.22;;;3.05;100.00
10712;BME280;5407;51.234;6.804;2024-01-15T02:33:11;99741.66;;;3.12;100.00
10712;BME280;5407;51.234;6.804;2024-01-15T02:35:38;99726.28;;;3.18;100.00
10712;BME280;5407;51.234;6.804;2024-01-15T02:38:06;99737.72;;;3.18;100.00
10712;BME280;5407;51.234;6.804;2024-01-15T02:40:34;99740.22;;;3.23;100.00
10712;BME280;5407;51.234;6.804;2024-01-15T02:43:01;99733.34;;;3.22;100.00
10712;BME280;5407;51.234;6.804;2024-01-15T02:45:28;99737.41;;;3.28;100.00
10712;BME280;5407;51.234;6.804;2024-01-15T02:47:55;99738.03;;;3.34;100.00
10712;BME280;5407;51.234;6.804;2024-01-15T02:50:22;99740.84;;;3.37;100.00
10712;BME280;5407;51.234;6.804;2024-01-15T02:52:49;99734.69;;;3.45;100.00
10712;BME280;5407;51.234;6.804;2024-01-15T02:55:16;99738.34;;;3.32;100.00
10712;BME280;5407;51.234;6.804;2024-01-15T02:57:44;99740.66;;;3.42;100.00
10712;BME280;5407;51.234;6.804;2024-01-15T03:00:11;99739.44;;;3.31;100.00
10712;BME280;5407;51.234;6.804;2024-01-15T03:02:39;99738.34;;;3.32;100.00
10712;BME280;5407;51.234;6.804;2024-01-15T03:05:09;99744.59;;;3.36;100.00
10712;BME280;5407;51.234;6.804;2024-01-15T03:07:35;99748.53;;;3.39;100.00
10712;BME280;5407;51.234;6.804;2024-01-15T03:10:03;99741.00;;;3.24;100.00
10712;BME280;5407;51.234;6.804;2024-01-15T03:12:29;99737.69;;;3.35;100.00
10712;BME280;5407;51.234;6.804;2024-01-15T03:14:58;99742.44;;;3.21;100.00
10712;BME280;5407;51.234;6.804;2024-01-15T03:17:25;99743.66;;;3.32;100.00
10712;BME280;5407;51.234;6.804;2024-01-15T03:19:52;99735.50;;;3.37;100.00
10712;BME280;5407;51.234;6.804;2024-01-15T03:22:19;99745.06;;;3.38;100.00
10712;BME280;5407;51.234;6.804;2024-01-15T03:24:45;99743.19;;;3.39;100.00
10712;BME280;5407;51.234;6.804;2024-01-15T03:27:12;99744.59;;;3.45;100.00
10712;BME280;5407;51.234;6.804;2024-01-15T03:29:40;99746.50;;;3.27;100.00
10712;BME280;5407;51.234;6.804;2024-01-15T03:32:08;99741.66;;;3.12;100.00
10712;BME280;5407;51.234;6.804;2024-01-15T03:34:35;99739.31;;;3.28;100.00
10712;BME280;5407;51.234;6.804;2024-01-15T03:37:02;99740.06;;;3.28;100.00
10712;BME280;5407;51.234;6.804;2024-01-15T03:39:29;99733.63;;;3.29;100.00
10712;BME280;5407;51.234;6.804;2024-01-15T03:41:56;99730.84;;;3.17;100.00
10712;BME280;5407;51.234;6.804;2024-01-15T03:44:23;99729.25;;;3.33;100.00
10712;BME280;5407;51.234;6.804;2024-01-15T03:46:50;99732.38;;;3.35;100.00
10712;BME280;5407;51.234;6.804;2024-01-15T03:49:18;99738.50;;;3.36;100.00
10712;BME280;5407;51.234;6.804;2024-01-15T03:51:45;99738.81;;;3.34;100.00
10712;BME280;5407;51.234;6.804;2024-01-15T03:54:12;99734.22;;;3.43;100.00
10712;BME280;5407;51.234;6.804;2024-01-15T03:56:38;99727.34;;;3.42;100.00
10712;BME280;5407;51.234;6.804;2024-01-15T03:59:05;99728.94;;;3.26;100.00
10712;BME280;5407;51.234;6.804;2024-01-15T04:01:32;99723.59;;;3.35;100.00
10712;BME280;5407;51.234;6.804;2024-01-15T04:03:59;99718.25;;;3.43;100.00
10712;BME280;5407;51.234;6.804;2024-01-15T04:06:27;99724.38;;;3.35;100.00
10712;BME280;5407;51.234;6.804;2024-01-15T04:08:54;99719.09;;;3.27;100.00
10712;BME280;5407;51.234;6.804;2024-01-15T04:11:21;99707.75;;;3.38;100.00
10712;BME280;5407;51.234;6.804;2024-01-15T04:13:48;99705.59;;;3.32;100.00
10712;BME280;5407;51.234;6.804;2024-01-15T04:16:15;99696.81;;;3.23;100.00
10712;BME280;5407;51.234;6.804;2024-01-15T04:18:42;99703.88;;;3.19;100.00
10712;BME280;5407;51.234;6.804;2024-01-15T04:21:09;99702.41;;;3.38;100.00
10712;BME280;5407;51.234;6.804;2024-01-15T04:23:37;99698.81;;;3.43;100.00
10712;BME280;5407;51.234;6.804;2024-01-15T04:26:05;99691.78;;;3.30;100.00
10712;BME280;5407;51.234;6.804;2024-01-15T04:28:32;99687.56;;;3.20;100.00
10712;BME280;5407;51.234;6.804;2024-01-15T04:30:59;99689.78;;;3.18;100.00
10712;BME280;5407;51.234;6.804;2024-01-15T04:33:25;99682.19;;;3.37;100.00
10712;BME280;5407;51.234;6.804;2024-01-15T04:35:52;99689.47;;;3.11;100.00
10712;BME280;5407;51.234;6.804;2024-01-15T04:38:19;99682.53;;;3.27;100.00
10712;BME280;5407;51.234;6.804;2024-01-15T04:40:47;99675.53;;;3.14;100.00
10712;BME280;5407;51.234;6.804;2024-01-15T04:43:14;99683.97;;;3.25;100.00
10712;BME280;5407;51.234;6.804;2024-01-15T04:45:41;99679.41;;;3.25;100.00
10712;BME280;5407;51.234;6.804;2024-01-15T04:48:08;99680.03;;;3.22;100.00
10712;BME280;5407;51.234;6.804;2024-01-15T04:50:35;99678.31;;;3.35;100.00
10712;BME280;5407;51.234;6.804;2024-01-15T04:53:01;99677.16;;;3.44;100.00
10712;BME280;5407;51.234;6.804;2024-01-15T04:55:28;99674.88;;;3.26;100.00
10712;BME280;5407;51.234;6.804;2024-01-15T04:57:56;99681.44;;;3.20;100.00
10712;BME280;5407;51.234;6.804;2024-01-15T05:00:23;99684.69;;;3.42;100.00
10712;BME280;5407;51.234;6.804;2024-01-15T05:02:50;99680.63;;;3.36;100.00
10712;BME280;5407;51.234;6.804;2024-01-15T05:05:17;99680.50;;;3.33;100.00
10712;BME280;5407;51.234;6.804;2024-01-15T05:07:43;99678.31;;;3.35;100.00
10712;BME280;5407;51.234;6.804;2024-01-15T05:10:10;99679.81;;;3.44;100.00
10712;BME280;5407;51.234;6.804;2024-01-15T05:12:37;99679.69;;;3.32;100.00
10712;BME280;5407;51.234;6.804;2024-01-15T05:15:06;99671.81;;;3.44;100.00
10712;BME280;5407;51.234;6.804;2024-01-15T05:17:32;99667.13;;;3.41;100.00
10712;BME280;5407;51.234;6.804;2024-01-15T05:19:59;99667.28;;;3.45;100.00
10712;BME280;5407;51.234;6.804;2024-01-15T05:22:26;99664.94;;;3.43;99.93
10712;BME280;5407;51.234;6.804;2024-01-15T05:24:53;99672.63;;;3.45;100.00
10712;BME280;5407;51.234;6.804;2024-01-15T05:27:20;99669.34;;;3.39;100.00
10712;BME280;5407;51.234;6.804;2024-01-15T05:29:46;99676.03;;;3.54;100.00
10712;BME280;5407;51.234;6.804;2024-01-15T05:32:15;99674.03;;;3.42;100.00
10712;BME280;5407;51.234;6.804;2024-01-15T05:34:41;99677.16;;;3.44;100.00
10712;BME280;5407;51.234;6.804;2024-01-15T05:37:08;99664.78;;;3.40;100.00
10712;BME280;5407;51.234;6.804;2024-01-15T05:39:35;99663.38;;;3.42;100.00
10712;BME280;5407;51.234;6.804;2024-01-15T05:42:02;99652.28;;;3.32;100.00
10712;BME280;5407;51.234;6.804;2024-01-15T05:44:29;99656.94;;;3.43;100.00
10712;BME280;5407;51.234;6.804;2024-01-15T05:46:56;99657.72;;;3.52;100.00
10712;BME280;5407;51.234;6.804;2024-01-15T05:49:24;99656.91;;;3.52;100.00
10712;BME280;5407;51.234;6.804;2024-01-15T05:51:51;99654.44;;;3.47;100.00
10712;BME280;5407;51.234;6.804;2024-01-15T05:54:18;99655.19;;;3.47;100.00
10712;BME280;5407;51.234;6.804;2024-01-15T05:56:46;99644.53;;;3.47;99.57
10712;BME280;5407;51.234;6.804;2024-01-15T05:59:13;99646.88;;;3.57;99.88
10712;BME280;5407;51.234;6.804;2024-01-15T06:01:39;99643.41;;;3.57;100.00
10712;BME280;5407;51.234;6.804;2024-01-15T06:04:06;99645.47;;;3.51;99.39
10712;BME280;5407;51.234;6.804;2024-01-15T06:06:34;99635.75;;;3.55;99.12
10712;BME280;5407;51.234;6.804;2024-01-15T06:09:01;99634.19;;;3.54;99.88
10712;BME280;5407;51.234;6.804;2024-01-15T06:11:31;99636.03;;;3.62;99.96
10712;BME280;5407;51.234;6.804;2024-01-15T06:13:58;99632.63;;;3.53;99.27
10712;BME280;5407;51.234;6.804;2024-01-15T06:16:25;99629.94;;;3.53;99.80
10712;BME280;5407;51.234;6.804;2024-01-15T06:18:52;99624.44;;;3.58;99.96
10712;BME280;5407;51.234;6.804;2024-01-15T06:21:20;99626.75;;;3.60;99.80
10712;BME280;5407;51.234;6.804;2024-01-15T06:23:48;99624.47;;;3.50;99.02
10712;BME280;5407;51.234;6.804;2024-01-15T06:26:15;99627.59;;;3.43;99.75
10712;BME280;5407;51.234;6.804;2024-01-15T06:28:41;99626.00;;;3.59;99.37
10712;BME280;5407;51.234;6.804;2024-01-15T06:31:08;99618.75;;;3.60;99.30
10712;BME280;5407;51.234;6.804;2024-01-15T06:33:35;99621.13;;;3.61;99.46
10712;BME280;5407;51.234;6.804;2024-01-15T06:36:02;99618.38;;;3.41;99.61
10712;BME280;5407;51.234;6.804;2024-01-15T06:38:29;99626.97;;;3.46;99.66
10712;BME280;5407;51.234;6.804;2024-01-15T06:40:58;99617.25;;;3.50;100.00
10712;BME280;5407;51.234;6.804;2024-01-15T06:43:24;99620.41;;;3.44;100.00
10712;BME280;5407;51.234;6.804;2024-01-15T06:45:51;99627.28;;;3.53;100.00
10712;BME280;5407;51.234;6.804;2024-01-15T06:48:18;99629.81;;;3.41;100.00
10712;BME280;5407;51.234;6.804;2024-01-15T06:50:45;99626.97;;;3.46;100.00
10712;BME280;5407;51.234;6.804;2024-01-15T06:53:12;99625.75;;;3.35;100.00
10712;BME280;5407;51.234;6.804;2024-01-15T06:55:39;99633.88;;;3.47;100.00
10712;BME280;5407;51.234;6.804;2024-01-15T06:58:07;99634.19;;;3.46;100.00
10712;BME280;5407;51.234;6.804;2024-01-15T07:00:34;99636.03;;;3.54;100.00
10712;BME280;5407;51.234;6.804;2024-01-15T07:03:01;99632.47;;;3.50;100.00
10712;BME280;5407;51.234;6.804;2024-01-15T07:05:27;99635.03;;;3.29;100.00
10712;BME280;5407;51.234;6.804;2024-01-15T07:07:55;99619.69;;;3.26;100.00
10712;BME280;5407;51.234;6.804;2024-01-15T07:10:22;99632.16;;;3.51;100.00
10712;BME280;5407;51.234;6.804;2024-01-15T07:12:49;99623.91;;;3.27;100.00
10712;BME280;5407;51.234;6.804;2024-01-15T07:15:17;99621.19;;;3.44;100.00
10712;BME280;5407;51.234;6.804;2024-01-15T07:17:44;99621.03;;;3.49;100.00
10712;BME280;5407;51.234;6.804;2024-01-15T07:20:11;99616.31;;;3.46;100.00
10712;BME280;5407;51.234;6.804;2024-01-15T07:22:38;99622.59;;;3.50;100.00
10712;BME280;5407;51.234;6.804;2024-01-15T07:25:05;99623.34;;;3.59;100.00
10712;BME280;5407;51.234;6.804;2024-01-15T07:27:32;99615.97;;;3.56;100.00
10712;BME280;5407;51.234;6.804;2024-01-15T07:29:59;99616.75;;;3.57;100.00
10712;BME280;5407;51.234;6.804;2024-01-15T07:32:27;99621.75;;;3.58;100.00
10712;BME280;5407;51.234;6.804;2024-01-15T07:34:54;99620.03;;;3.62;100.00
10712;BME280;5407;51.234;6.804;2024-01-15T07:37:21;99611.94;;;3.50;100.00
10712;BME280;5407;51.234;6.804;2024-01-15T07:39:49;99608.81;;;3.48;100.00
10712;BME280;5407;51.234;6.804;2024-01-15T07:42:16;99620.66;;;3.59;100.00
10712;BME280;5407;51.234;6.804;2024-01-15T07:44:42;99615.34;;;3.59;100.00
10712;BME280;5407;51.234;6.804;2024-01-15T07:47:10;99608.44;;;3.58;100.00
10712;BME280;5407;51.234;6.804;2024-01-15T07:49:38;99609.16;;;3.67;100.00
10712;BME280;5407;51.234;6.804;2024-01-15T07:52:05;99608.44;;;3.58;100.00
10712;BME280;5407;51.234;6.804;2024-01-15T07:54:32;99622.78;;;3.74;100.00
10712;BME280;5407;51.234;6.804;2024-01-15T07:57:00;99616.91;;;3.60;100.00
10712;BME280;5407;51.234;6.804;2024-01-15T07:59:28;99618.34;;;3.49;100.00
10712;BME280;5407;51.234;6.804;2024-01-15T08:01:55;99618.31;;;3.58;100.00
10712;BME280;5407;51.234;6.804;2024-01-15T08:04:22;99619.47;;;3.40;100.00
10712;BME280;5407;51.234;6.804;2024-01-15T08:06:50;99616.31;;;3.46;100.00
10712;BME280;5407;51.234;6.804;2024-01-15T08:09:17;99617.94;;;3.39;100.00
10712;BME280;5407;51.234;6.804;2024-01-15T08:11:44;99608.91;;;3.14;100.00
10712;BME280;5407;51.234;6.804;2024-01-15T08:14:11;99610.69;;;3.39;100.00
10712;BME280;5407;51.234;6.804;2024-01-15T08:16:38;99611.28;;;3.53;100.00
10712;BME280;5407;51.234;6.804;2024-01-15T08:19:05;99608.44;;;3.58;100.00
10712;BME280;5407;51.234;6.804;2024-01-15T08:21:32;99608.31;;;3.46;100.00
10712;BME280;5407;51.234;6.804;2024-01-15T08:24:02;99597.38;;;3.39;100.00
10712;BME280;5407;51.234;6.804;2024-01-15T08:26:29;99606.94;;;3.40;100.00
10712;BME280;5407;51.234;6.804;2024-01-15T08:28:56;99604.91;;;3.37;100.00
10712;BME280;5407;51.234;6.804;2024-01-15T08:31:23;99605.41;;;3.31;100.00
10712;BME280;5407;51.234;6.804;2024-01-15T08:33:50;99606.16;;;3.40;100.00
10712;BME280;5407;51.234;6.804;2024-01-15T08:36:16;99606.34;;;3.26;100.00
10712;BME280;5407;51.234;6.804;2024-01-15T08:38:43;99616.09;;;3.22;100.00
10712;BME280;5407;51.234;6.804;2024-01-15T08:41:11;99600.84;;;3.31;100.00
10712;BME280;5407;51.234;6.804;2024-01-15T08:43:38;99608.56;;;3.24;100.00
10712;BME280;5407;51.234;6.804;2024-01-15T08:46:05;99616.25;;;3.26;100.00
10712;BME280;5407;51.234;6.804;2024-01-15T08:48:32;99611.75;;;3.09;100.00
10712;BME280;5407;51.234;6.804;2024-01-15T08:50:59;99618.47;;;3.07;100.00
10712;BME280;5407;51.234;6.804;2024-01-15T08:53:26;99614.25;;;3.14;100.00
10712;BME280;5407;51.234;6.804;2024-01-15T08:55:53;99619.28;;;3.07;100.00
10712;BME280;5407;51.234;6.804;2024-01-15T08:58:23;99618.13;;;3.17;100.00
10712;BME280;5407;51.234;6.804;2024-01-15T09:00:50;99616.75;;;3.11;100.00
10712;BME280;5407;51.234;6.804;2024-01-15T09:03:17;99630.50;;;3.21;100.00
10712;BME280;5407;51.234;6.804;2024-01-15T09:05:44;99624.91;;;3.14;100.00
10712;BME280;5407;51.234;6.804;2024-01-15T09:08:11;99627.38;;;3.19;100.00
10712;BME280;5407;51.234;6.804;2024-01-15T09:10:38;99630.84;;;3.11;100.00
10712;BME280;5407;51.234;6.804;2024-01-15T09:13:05;99634.75;;;3.14;100.00
10712;BME280;5407;51.234;6.804;2024-01-15T09:15:33;99630.84;;;3.11;100.00
10712;BME280;5407;51.234;6.804;2024-01-15T09:18:00;99637.94;;;3.07;100.00
10712;BME280;5407;51.234;6.804;2024-01-15T09:20:27;99647.91;;;3.19;100.00
10712;BME280;5407;51.234;6.804;2024-01-15T09:22:54;99638.38;;;3.09;100.00
10712;BME280;5407;51.234;6.804;2024-01-15T09:25:21;99641.06;;;3.01;100.00
10712;BME280;5407;51.234;6.804;2024-01-15T09:27:48;99642.44;;;3.15;100.00
10712;BME280;5407;51.234;6.804;2024-01-15T09:30:15;99642.63;;;3.10;100.00
10712;BME280;5407;51.234;6.804;2024-01-15T09:32:43;99638.56;;;2.96;100.00
10712;BME280;5407;51.234;6.804;2024-01-15T09:35:10;99639.50;;;3.00;100.00
10712;BME280;5407;51.234;6.804;2024-01-15T09:37:37;99643.88;;;2.87;100.00
10712;BME280;5407;51.234;6.804;2024-01-15T09:40:05;99636.19;;;2.94;100.00
10712;BME280;5407;51.234;6.804;2024-01-15T09:42:33;99649.00;;;3.18;100.00
10712;BME280;5407;51.234;6.804;2024-01-15T09:45:01;99648.06;;;3.22;100.00
10712;BME280;5407;51.234;6.804;2024-01-15T09:47:29;99654.97;;;3.23;100.00
10712;BME280;5407;51.234;6.804;2024-01-15T09:49:58;99657.00;;;3.26;100.00
10712;BME280;5407;51.234;6.804;2024-01-15T09:52:25;99660.91;;;3.29;100.00
10712;BME280;5407;51.234;6.804;2024-01-15T09:54:52;99654.03;;;3.28;100.00
10712;BME280;5407;51.234;6.804;2024-01-15T09:57:19;99658.25;;;3.20;100.00
10712;BME280;5407;51.234;6.804;2024-01-15T09:59:46;99656.22;;;3.17;100.00
10712;BME280;5407;51.234;6.804;2024-01-15T10:02:14;99657.00;;;3.26;100.00
10712;BME280;5407;51.234;6.804;2024-01-15T10:04:44;99661.56;;;3.17;100.00
10712;BME280;5407;51.234;6.804;2024-01-15T10:07:15;99664.81;;;3.31;100.00
10712;BME280;5407;51.234;6.804;2024-01-15T10:09:42;99664.19;;;3.34;100.00
10712;BME280;5407;51.234;6.804;2024-01-15T10:12:09;99664.81;;;3.31;100.00
10712;BME280;5407;51.234;6.804;2024-01-15T10:14:36;99666.94;;;3.46;100.00
10712;BME280;5407;51.234;6.804;2024-01-15T10:17:12;99659.34;;;3.74;100.00
10712;BME280;5407;51.234;6.804;2024-01-15T10:19:39;99659.16;;;3.79;100.00
10712;BME280;5407;51.234;6.804;2024-01-15T10:22:07;99663.38;;;3.42;100.00
10712;BME280;5407;51.234;6.804;2024-01-15T10:24:36;99670.56;;;3.50;100.00
10712;BME280;5407;51.234;6.804;2024-01-15T10:27:08;99664.94;;;3.43;100.00
10712;BME280;5407;51.234;6.804;2024-01-15T10:29:35;99669.22;;;3.27;100.00
10712;BME280;5407;51.234;6.804;2024-01-15T10:32:03;99668.91;;;3.29;100.00
10712;BME280;5407;51.234;6.804;2024-01-15T10:34:32;99663.53;;;3.46;100.00
10712;BME280;5407;51.234;6.804;2024-01-15T10:36:59;99656.69;;;3.28;100.00
10712;BME280;5407;51.234;6.804;2024-01-15T10:39:29;99657.16;;;3.30;100.00
10712;BME280;5407;51.234;6.804;2024-01-15T10:41:58;99658.09;;;3.25;100.00
10712;BME280;5407;51.234;6.804;2024-01-15T10:44:25;99652.47;;;3.27;100.00
10712;BME280;5407;51.234;6.804;2024-01-15T10:46:51;99660.53;;;3.47;100.00
10712;BME280;5407;51.234;6.804;2024-01-15T10:49:18;99655.81;;;3.44;100.00
10712;BME280;5407;51.234;6.804;2024-01-15T10:51:47;99663.03;;;3.52;100.00
10712;BME280;5407;51.234;6.804;2024-01-15T10:54:14;99656.63;;;3.45;100.00
10712;BME280;5407;51.234;6.804;2024-01-15T10:56:42;99662.72;;;3.45;100.00
10712;BME280;5407;51.234;6.804;2024-01-15T10:59:11;99660.00;;;3.62;100.00
10712;BME280;5407;51.234;6.804;2024-01-15T11:01:39;99666.25;;;3.75;100.00
10712;BME280;5407;51.234;6.804;2024-01-15T11:04:08;99665.94;;;3.68;100.00
10712;BME280;5407;51.234;6.804;2024-01-15T11:06:42;99663.78;;;3.90;100.00
10712;BME280;5407;51.234;6.804;2024-01-15T11:09:09;99667.03;;;4.04;100.00
10712;BME280;5407;51.234;6.804;2024-01-15T11:11:41;99662.81;;;3.66;100.00
10712;BME280;5407;51.234;6.804;2024-01-15T11:14:08;99668.72;;;3.80;100.00
10712;BME280;5407;51.234;6.804;2024-01-15T11:16:54;99667.56;;;3.52;100.00
10712;BME280;5407;51.234;6.804;2024-01-15T11:19:22;99665.06;;;3.55;100.00
10712;BME280;5407;51.234;6.804;2024-01-15T11:21:49;99660.59;;;3.68;100.00
10712;BME280;5407;51.234;6.804;2024-01-15T11:24:34;99658.81;;;3.43;100.00
10712;BME280;5407;51.234;6.804;2024-01-15T11:27:03;99667.00;;;3.84;100.00
10712;BME280;5407;51.234;6.804;2024-01-15T11:29:31;99662.13;;;3.77;100.00
10712;BME280;5407;51.234;6.804;2024-01-15T11:32:05;99667.66;;;3.72;99.40
10712;BME280;5407;51.234;6.804;2024-01-15T11:34:53;99659.94;;;3.79;99.00
10712;BME280;5407;51.234;6.804;2024-01-15T11:37:20;99671.06;;;3.81;99.53
10712;BME280;5407;51.234;6.804;2024-01-15T11:39:51;99670.69;;;3.91;98.33
10712;BME280;5407;51.234;6.804;2024-01-15T11:42:19;99666.16;;;4.21;97.79
10712;BME280;5407;51.234;6.804;2024-01-15T11:44:47;99658.69;;;4.55;96.14
10712;BME280;5407;51.234;6.804;2024-01-15T11:47:15;99656.47;;;4.36;95.43
10712;BME280;5407;51.234;6.804;2024-01-15T11:50:06;99659.25;;;4.40;95.29
10712;BME280;5407;51.234;6.804;2024-01-15T11:52:34;99656.81;;;4.06;95.51
10712;BME280;5407;51.234;6.804;2024-01-15T11:55:10;99658.00;;;4.17;95.18
10712;BME280;5407;51.234;6.804;2024-01-15T11:57:45;99665.84;;;4.22;94.42
10712;BME280;5407;51.234;6.804;2024-01-15T12:00:13;99661.16;;;4.39;93.55
10712;BME280;5407;51.234;6.804;2024-01-15T12:02:43;99664.81;;;4.55;92.13
10712;BME280;5407;51.234;6.804;2024-01-15T12:05:11;99670.22;;;4.47;92.70
10712;BME280;5407;51.234;6.804;2024-01-15T12:07:39;99661.38;;;4.06;93.81
10712;BME280;5407;51.234;6.804;2024-01-15T12:10:09;99663.34;;;4.17;93.47
10712;BME280;5407;51.234;6.804;2024-01-15T12:12:59;99655.00;;;3.98;93.72
10712;BME280;5407;51.234;6.804;2024-01-15T12:15:28;99661.91;;;3.99;93.58
10712;BME280;5407;51.234;6.804;2024-01-15T12:17:58;99663.78;;;3.90;94.71
10712;BME280;5407;51.234;6.804;2024-01-15T12:20:26;99665.56;;;4.15;93.48
10712;BME280;5407;51.234;6.804;2024-01-15T12:22:52;99670.25;;;4.18;93.35
10712;BME280;5407;51.234;6.804;2024-01-15T12:25:20;99670.81;;;4.03;94.42
10712;BME280;5407;51.234;6.804;2024-01-15T12:27:47;99663.81;;;4.19;93.14
10712;BME280;5407;51.234;6.804;2024-01-15T12:30:15;99667.53;;;4.27;93.58
10712;BME280;5407;51.234;6.804;2024-01-15T12:32:42;99677.25;;;4.51;91.74
10712;BME280;5407;51.234;6.804;2024-01-15T12:35:11;99665.44;;;4.32;92.18
10712;BME280;5407;51.234;6.804;2024-01-15T12:37:39;99674.19;;;4.41;92.17
10712;BME280;5407;51.234;6.804;2024-01-15T12:40:07;99672.00;;;4.43;92.04
10712;BME280;5407;51.234;6.804;2024-01-15T12:42:35;99673.91;;;4.34;92.19
10712;BME280;5407;51.234;6.804;2024-01-15T12:45:03;99672.22;;;4.29;92.18
10712;BME280;5407;51.234;6.804;2024-01-15T12:47:30;99676.78;;;4.29;92.47
10712;BME280;5407;51.234;6.804;2024-01-15T12:49:57;99679.38;;;4.17;93.15
10712;BME280;5407;51.234;6.804;2024-01-15T12:52:28;99680.38;;;4.04;93.20
10712;BME280;5407;51.234;6.804;2024-01-15T12:54:55;99686.91;;;4.15;92.73
10712;BME280;5407;51.234;6.804;2024-01-15T12:57:22;99693.94;;;3.91;92.53
10712;BME280;5407;51.234;6.804;2024-01-15T12:59:49;99686.38;;;4.01;93.39
10712;BME280;5407;51.234;6.804;2024-01-15T13:02:16;99681.94;;;4.05;92.71
10712;BME280;5407;51.234;6.804;2024-01-15T13:04:44;99682.03;;;4.17;92.84
10712;BME280;5407;51.234;6.804;2024-01-15T13:07:11;99689.13;;;4.13;91.75
10712;BME280;5407;51.234;6.804;2024-01-15T13:09:39;99691.78;;;4.13;91.07
10712;BME280;5407;51.234;6.804;2024-01-15T13:12:07;99682.63;;;4.23;90.83
10712;BME280;5407;51.234;6.804;2024-01-15T13:14:34;99685.06;;;4.07;90.95